Sy Clevelander — 2CWE8 — position and weather

sailwx.info

Track history (hours):
 
Tides and Currents Weather Stations Pressure Air Temp Water Temp Dewpoint Dewpoint Depression Visibility Wind Speed Wind Dir Waves Ship Positions

Sy Clevelander

Last reported at 2015-Jun-14 12:31 UTC. Time now 2015-Aug-02 00:15 UTC.
Position N 39°34' E 002°38'.
Warning: this ship's position is 48 days out of date.

Length 25 m.

Type: Sailing vessel. MMSI: 235076308.

Date/timePositionNaut miles runAvg speedWind from/ knotsBaromVisibWave heightAir tempDewpointWater temp
2015-Jun-14 12:31N 39°34' E 002°38'0 0.0
2015-Jun-14 11:31N 39°34' E 002°38'0 0.0
2015-Jun-14 10:31N 39°34' E 002°38'0 0.0
2015-Jun-14 09:31N 39°34' E 002°38'0 0.0
2015-Jun-14 08:31N 39°34' E 002°38'0 0.0
2015-Jun-14 07:31N 39°34' E 002°38'0 0.0
2015-Jun-14 06:31N 39°34' E 002°38'0 0.0
2015-Jun-14 05:31N 39°34' E 002°38'0 0.0
2015-Jun-14 04:31N 39°34' E 002°38'0 0.0
2015-Jun-14 03:31N 39°34' E 002°38'0 0.0
2015-Jun-14 02:31N 39°34' E 002°38'0 0.0
2015-Jun-14 01:31N 39°34' E 002°38'0 0.0
2015-Jun-14 00:31N 39°34' E 002°38'0 0.0
2015-Jun-13 23:31N 39°34' E 002°38'0 0.0
2015-Jun-13 22:31N 39°34' E 002°38'0 0.0
2015-Jun-13 21:31N 39°34' E 002°38'0 0.0
2015-Jun-13 20:28N 39°34' E 002°38'0 0.0
2015-Jun-13 19:28N 39°34' E 002°38'0 0.0
2015-Jun-13 18:22N 39°34' E 002°38'1 1.2
2015-Jun-13 17:33N 39°33' E 002°39'5 4.6
2015-Jun-13 16:33N 39°29' E 002°39'8 7.1
2015-Jun-13 15:22N 39°28' E 002°28'2 0.3
2015-Jun-13 09:33N 39°29' E 002°26'7 7.3
2015-Jun-13 08:33N 39°30' E 002°36'4 4.1
2015-Jun-13 07:33N 39°34' E 002°38'0 0.0
2015-Jun-13 06:33N 39°34' E 002°38'  
Track history (hours):
 
Tides and Currents Weather Stations Pressure Air Temp Water Temp Dewpoint Dewpoint Depression Visibility Wind Speed Wind Dir Waves Ship Positions

Sy Clevelander

Last reported at 2015-Jun-14 12:31 UTC. Time now 2015-Aug-02 00:15 UTC.
Position N 39°34' E 002°38'.
Warning: this ship's position is 48 days out of date.

Length 25 m.

Type: Sailing vessel. MMSI: 235076308.

Date/timePositionNaut miles runAvg speedWind from/ knotsBaromVisibWave heightAir tempDewpointWater temp
2015-Jun-14 12:31N 39°34' E 002°38'0 0.0
2015-Jun-14 11:31N 39°34' E 002°38'0 0.0
2015-Jun-14 10:31N 39°34' E 002°38'0 0.0
2015-Jun-14 09:31N 39°34' E 002°38'0 0.0
2015-Jun-14 08:31N 39°34' E 002°38'0 0.0
2015-Jun-14 07:31N 39°34' E 002°38'0 0.0
2015-Jun-14 06:31N 39°34' E 002°38'0 0.0
2015-Jun-14 05:31N 39°34' E 002°38'0 0.0
2015-Jun-14 04:31N 39°34' E 002°38'0 0.0
2015-Jun-14 03:31N 39°34' E 002°38'0 0.0
2015-Jun-14 02:31N 39°34' E 002°38'0 0.0
2015-Jun-14 01:31N 39°34' E 002°38'0 0.0
2015-Jun-14 00:31N 39°34' E 002°38'0 0.0
2015-Jun-13 23:31N 39°34' E 002°38'0 0.0
2015-Jun-13 22:31N 39°34' E 002°38'0 0.0
2015-Jun-13 21:31N 39°34' E 002°38'0 0.0
2015-Jun-13 20:28N 39°34' E 002°38'0 0.0
2015-Jun-13 19:28N 39°34' E 002°38'0 0.0
2015-Jun-13 18:22N 39°34' E 002°38'1 1.2
2015-Jun-13 17:33N 39°33' E 002°39'5 4.6
2015-Jun-13 16:33N 39°29' E 002°39'8 7.1
2015-Jun-13 15:22N 39°28' E 002°28'2 0.3
2015-Jun-13 09:33N 39°29' E 002°26'7 7.3
2015-Jun-13 08:33N 39°30' E 002°36'4 4.1
2015-Jun-13 07:33N 39°34' E 002°38'0 0.0
2015-Jun-13 06:33N 39°34' E 002°38'  

Dump ship's entire track history